Time;durP1;ratioP1;P1;durP2;ratioP2;P2;SDS_P1;SDS_P2;PMS_P1;PMS_P2;Temp;Humidity;BMP_temperature;BMP_pressure;BME280_temperature;BME280_humidity;BME280_pressure;Samples;Min_cycle;Max_cycle;Signal;HPM_P1;HPM_P2
2021/03/17 00:00:46;;;;;;;5.47;0.20;;;;;;;1.93;48.64;102304.44;5009407;28;20251;-72
2021/03/17 00:03:30;;;;;;;3.13;0.60;;;;;;;1.71;49.66;102310.00;5008420;28;20060;-71
2021/03/17 00:06:15;;;;;;;0.80;0.17;;;;;;;1.96;48.87;102313.06;5010693;28;20037;-71
2021/03/17 00:08:59;;;;;;;2.30;0.20;;;;;;;1.89;49.88;102318.09;5009311;28;20045;-71
2021/03/17 00:11:42;;;;;;;3.30;0.28;;;;;;;1.86;50.00;102322.31;5025450;28;20049;-72
2021/03/17 00:14:26;;;;;;;2.45;0.30;;;;;;;1.73;49.10;102304.03;5005833;28;20045;-72
2021/03/17 00:17:10;;;;;;;1.45;0.20;;;;;;;2.01;48.15;102304.56;5011382;28;20049;-72
2021/03/17 00:19:54;;;;;;;5.72;0.30;;;;;;;2.15;47.70;102297.06;5010908;28;20573;-73
2021/03/17 00:22:38;;;;;;;3.17;0.20;;;;;;;2.16;46.97;102297.97;5008210;28;20044;-73
2021/03/17 00:25:28;;;;;;;0.90;0.10;;;;;;;2.01;47.09;102304.56;5011171;28;20053;-72
2021/03/17 00:28:12;;;;;;;0.93;0.10;;;;;;;2.26;47.04;102298.13;5009813;28;20431;-73
2021/03/17 00:30:56;;;;;;;1.45;0.20;;;;;;;2.33;47.41;102299.09;5007990;28;20074;-72
2021/03/17 00:33:41;;;;;;;2.97;0.10;;;;;;;2.28;47.40;102296.44;5009935;28;20045;-73
2021/03/17 00:36:25;;;;;;;1.50;0.10;;;;;;;2.04;48.57;102311.47;5012036;28;20052;-74
2021/03/17 00:39:09;;;;;;;4.90;0.10;;;;;;;2.29;48.57;102313.69;5014961;28;20522;-76
2021/03/17 00:41:53;;;;;;;2.65;0.52;;;;;;;2.10;49.20;102316.75;5012541;28;20047;-75
2021/03/17 00:44:37;;;;;;;2.42;0.28;;;;;;;2.14;48.91;102323.72;5041800;28;20049;-74
2021/03/17 00:47:21;;;;;;;4.80;0.43;;;;;;;2.17;49.28;102334.06;5012183;28;20040;-74
2021/03/17 00:49:46;;;;;;;1.27;0.60;;;;;;;2.17;49.49;102328.06;5012570;28;20030;-75
2021/03/17 00:52:12;;;;;;;2.10;0.15;;;;;;;1.81;50.21;102318.78;5007289;28;20036;-75
2021/03/17 00:54:56;;;;;;;3.95;0.17;;;;;;;1.99;49.56;102318.28;5011136;28;20566;-72
2021/03/17 00:57:40;;;;;;;2.67;0.10;;;;;;;1.97;49.72;102312.22;5010636;28;20034;-72
2021/03/17 01:00:11;;;;;;;2.13;0.13;;;;;;;2.23;49.25;102312.69;5011490;28;20034;-75
2021/03/17 01:02:37;;;;;;;4.18;0.35;;;;;;;2.07;49.72;102314.13;5006733;28;20030;-74
2021/03/17 01:05:04;;;;;;;0.60;0.15;;;;;;;2.08;49.78;102314.13;5013358;28;20087;-73
2021/03/17 01:07:29;;;;;;;6.57;0.20;;;;;;;2.17;49.31;102308.28;5011432;28;20056;-74
2021/03/17 01:09:55;;;;;;;3.95;0.20;;;;;;;2.32;49.25;102311.13;5006362;28;20405;-74
2021/03/17 01:12:20;;;;;;;1.55;0.30;;;;;;;2.19;49.20;102306.59;5009196;28;20026;-73
2021/03/17 01:14:46;;;;;;;1.77;0.20;;;;;;;2.37;48.82;102307.78;5011182;28;20046;-74
2021/03/17 01:17:12;;;;;;;0.32;0.10;;;;;;;2.17;49.23;102303.13;5010224;28;20325;-75
2021/03/17 01:19:37;;;;;;;2.30;0.20;;;;;;;2.37;48.69;102315.50;5010813;28;20034;-73
2021/03/17 01:22:04;;;;;;;2.67;0.22;;;;;;;2.25;49.39;102313.59;5013746;28;20210;-74
2021/03/17 01:24:30;;;;;;;5.82;0.35;;;;;;;2.32;49.38;102315.44;5028362;28;20036;-74
2021/03/17 01:26:55;;;;;;;6.10;0.50;;;;;;;2.07;50.48;102324.44;5014422;28;20041;-74
2021/03/17 01:29:21;;;;;;;4.97;0.20;;;;;;;2.11;50.80;102316.78;5013238;28;20025;-74
2021/03/17 01:31:47;;;;;;;1.52;0.15;;;;;;;2.17;50.59;102326.34;5012522;28;20484;-74
2021/03/17 01:34:12;;;;;;;1.75;0.20;;;;;;;2.28;50.57;102321.38;5009473;28;20038;-71
2021/03/17 01:36:38;;;;;;;2.10;0.30;;;;;;;2.21;50.60;102320.41;5027761;28;20032;-72
2021/03/17 01:39:04;;;;;;;5.88;0.20;;;;;;;1.94;51.48;102323.34;5009367;28;20029;-70
2021/03/17 01:41:29;;;;;;;4.75;0.20;;;;;;;1.90;52.33;102330.13;5008549;28;20029;-69
2021/03/17 01:43:55;;;;;;;6.45;0.20;;;;;;;2.08;51.32;102334.78;5023488;28;20387;-71
2021/03/17 01:46:20;;;;;;;5.47;0.50;;;;;;;1.93;51.68;102327.63;5009497;28;20586;-71
2021/03/17 01:48:46;;;;;;;5.30;1.33;;;;;;;1.87;52.31;102330.09;5006651;28;20025;-70
2021/03/17 01:51:11;;;;;;;6.90;0.63;;;;;;;1.79;52.58;102336.78;5009490;28;20275;-70
2021/03/17 01:53:38;;;;;;;2.22;0.13;;;;;;;2.30;51.33;102328.31;5006590;28;20050;-71
2021/03/17 01:56:05;;;;;;;12.43;0.40;;;;;;;2.33;50.86;102330.97;5006173;28;20057;-71
2021/03/17 01:58:31;;;;;;;6.93;0.38;;;;;;;2.23;51.21;102334.19;5006479;28;20076;-72
2021/03/17 02:00:58;;;;;;;8.13;0.75;;;;;;;2.10;51.47;102316.75;5008645;28;20048;-71
2021/03/17 02:03:24;;;;;;;3.53;0.70;;;;;;;1.92;52.45;102330.19;5008980;28;20117;-71
2021/03/17 02:05:51;;;;;;;9.85;0.55;;;;;;;1.70;52.54;102321.16;5006566;28;20048;-71
2021/03/17 02:08:19;;;;;;;10.52;0.30;;;;;;;1.88;52.26;102320.63;5007163;28;20041;-73
2021/03/17 02:10:45;;;;;;;4.57;0.30;;;;;;;2.15;51.42;102317.69;5006260;28;20189;-71
2021/03/17 02:13:35;;;;;;;8.25;0.63;;;;;;;2.36;51.21;102319.81;5007850;28;20061;-72
2021/03/17 02:16:22;;;;;;;4.57;0.82;;;;;;;2.17;51.55;102323.75;5005847;28;20034;-71
2021/03/17 02:19:08;;;;;;;2.15;0.20;;;;;;;2.12;51.79;102320.25;5008968;28;20029;-71
2021/03/17 02:22:02;;;;;;;2.90;0.30;;;;;;;2.34;51.26;102313.75;5008789;28;20036;-71
2021/03/17 02:24:34;;;;;;;3.05;0.10;;;;;;;2.31;50.79;102304.25;5006389;28;20030;-71
2021/03/17 02:27:28;;;;;;;8.50;0.30;;;;;;;2.32;51.21;102303.41;5024304;28;20034;-72
2021/03/17 02:30:42;;;;;;;2.28;0.40;;;;;;;2.23;51.36;102312.69;5012003;28;20026;-72
2021/03/17 02:33:45;;;;;;;3.08;0.25;;;;;;;1.94;51.71;102306.16;4995143;28;20038;-72
2021/03/17 02:36:34;;;;;;;10.93;0.50;;;;;;;2.39;50.74;102293.19;5012884;28;20041;-72
2021/03/17 02:39:08;;;;;;;14.75;0.93;;;;;;;2.47;50.15;102299.34;5011300;28;20048;-72
2021/03/17 02:41:42;;;;;;;2.63;0.40;;;;;;;2.29;50.61;102292.19;5011667;28;20026;-73
2021/03/17 02:44:13;;;;;;;8.27;0.60;;;;;;;2.34;49.58;102299.13;5007336;28;20508;-72
2021/03/17 02:46:41;;;;;;;8.68;0.40;;;;;;;2.54;49.13;102294.31;5007284;28;20511;-68
2021/03/17 02:49:13;;;;;;;4.60;0.20;;;;;;;2.61;48.88;102295.28;5008831;28;20121;-70
2021/03/17 02:51:43;;;;;;;3.92;0.22;;;;;;;2.77;48.86;102292.06;5009380;28;20037;-70
2021/03/17 02:54:11;;;;;;;6.18;0.55;;;;;;;2.71;48.87;102294.59;5008555;28;20084;-71
2021/03/17 02:56:45;;;;;;;3.40;0.30;;;;;;;2.48;48.76;102301.09;5007695;28;20113;-70
2021/03/17 02:59:13;;;;;;;6.13;0.80;;;;;;;2.22;48.96;102296.34;5006224;28;20034;-70
2021/03/17 03:01:41;;;;;;;4.78;0.32;;;;;;;2.56;47.97;102296.91;5006278;28;20041;-71
2021/03/17 03:04:08;;;;;;;14.02;0.60;;;;;;;2.55;47.64;102287.44;5011777;28;20556;-72
2021/03/17 03:06:35;;;;;;;7.30;0.22;;;;;;;2.51;47.62;102293.38;5024656;28;20064;-72
2021/03/17 03:09:04;;;;;;;3.25;0.30;;;;;;;2.49;47.75;102285.63;5012767;28;20504;-75
2021/03/17 03:11:31;;;;;;;4.18;0.35;;;;;;;2.35;48.07;102289.69;5009629;28;20072;-73
2021/03/17 03:13:56;;;;;;;0.90;0.10;;;;;;;2.30;48.30;102279.28;5012275;28;20048;-72
2021/03/17 03:16:23;;;;;;;7.70;0.50;;;;;;;2.17;48.44;102285.06;5009850;28;20489;-72
2021/03/17 03:18:51;;;;;;;9.40;0.40;;;;;;;2.12;48.54;102290.16;5007763;28;20048;-73
2021/03/17 03:21:19;;;;;;;5.20;0.25;;;;;;;2.20;48.32;102291.97;5009289;28;20034;-72
2021/03/17 03:23:47;;;;;;;11.35;0.43;;;;;;;2.18;48.05;102289.41;5011406;28;20033;-73
2021/03/17 03:26:14;;;;;;;3.45;0.40;;;;;;;2.28;47.80;102299.03;5009358;28;20037;-74
2021/03/17 03:28:39;;;;;;;0.47;0.10;;;;;;;2.21;47.34;102299.75;5008095;28;20451;-73
2021/03/17 03:31:05;;;;;;;5.43;0.20;;;;;;;2.20;46.25;102292.88;5039620;28;20041;-74
2021/03/17 03:33:31;;;;;;;0.93;0.20;;;;;;;2.43;45.92;102297.56;5006969;28;20038;-72
2021/03/17 03:35:57;;;;;;;5.07;0.50;;;;;;;2.31;46.57;102296.50;5011465;28;20042;-73
2021/03/17 03:38:23;;;;;;;6.57;0.38;;;;;;;2.49;45.81;102295.97;5009529;28;20033;-72
2021/03/17 03:40:48;;;;;;;5.20;0.30;;;;;;;2.65;45.77;102291.91;5009910;28;20026;-72
2021/03/17 03:43:15;;;;;;;4.60;1.02;;;;;;;2.61;45.52;102295.28;5010882;28;20033;-73
2021/03/17 03:45:41;;;;;;;5.25;0.70;;;;;;;2.54;46.01;102298.59;5011058;28;20065;-74
2021/03/17 03:48:08;;;;;;;5.30;0.30;;;;;;;2.46;46.08;102292.44;5009335;28;20042;-74
2021/03/17 03:50:41;;;;;;;4.70;0.45;;;;;;;2.18;46.77;102297.13;5040337;28;20038;-72
2021/03/17 03:53:28;;;;;;;5.70;0.35;;;;;;;2.43;45.94;102294.97;5009291;28;20584;-71
2021/03/17 03:56:05;;;;;;;11.18;0.40;;;;;;;2.20;45.84;102292.88;5009429;28;20037;-72
2021/03/17 03:58:36;;;;;;;7.53;0.32;;;;;;;2.34;45.60;102306.00;5010025;28;20037;-72
2021/03/17 04:01:16;;;;;;;5.55;0.20;;;;;;;2.16;45.66;102296.25;5007548;28;20041;-72
2021/03/17 04:03:46;;;;;;;8.10;0.25;;;;;;;2.23;45.35;102298.09;5008369;28;20131;-71
2021/03/17 04:06:13;;;;;;;3.95;0.30;;;;;;;2.54;44.62;102306.34;5012252;28;20052;-72
2021/03/17 04:08:45;;;;;;;2.40;0.28;;;;;;;2.60;44.80;102303.88;5011561;28;20044;-74
2021/03/17 04:11:13;;;;;;;1.63;0.40;;;;;;;2.68;44.64;102307.44;5012541;28;20073;-70
2021/03/17 04:13:40;;;;;;;6.95;0.40;;;;;;;2.73;44.39;102307.50;5010103;28;20065;-70
2021/03/17 04:16:06;;;;;;;3.63;0.10;;;;;;;2.79;44.02;102319.66;5010038;28;20034;-71
2021/03/17 04:18:36;;;;;;;3.50;0.40;;;;;;;2.42;45.25;102329.34;5009483;28;20555;-71
2021/03/17 04:21:09;;;;;;;3.17;0.28;;;;;;;1.95;47.44;102317.31;5009465;28;20385;-71
2021/03/17 04:23:38;;;;;;;6.32;0.20;;;;;;;1.74;48.41;102317.78;5006101;28;20040;-72
2021/03/17 04:26:04;;;;;;;4.40;0.20;;;;;;;1.95;47.76;102322.50;5012248;28;20713;-69
2021/03/17 04:28:31;;;;;;;5.82;0.20;;;;;;;1.88;47.72;102315.47;5009620;28;20092;-68
2021/03/17 04:30:59;;;;;;;5.22;0.45;;;;;;;1.98;47.73;102309.66;5009046;28;20591;-68
2021/03/17 04:33:26;;;;;;;4.32;0.22;;;;;;;1.50;48.50;102311.28;5008132;28;20022;-68
2021/03/17 04:35:57;;;;;;;4.22;0.45;;;;;;;1.66;48.13;102306.44;5007661;28;20037;-73
2021/03/17 04:38:26;;;;;;;8.40;0.27;;;;;;;1.98;47.42;102307.09;5009122;28;20037;-69
2021/03/17 04:40:52;;;;;;;5.95;0.85;;;;;;;2.22;46.80;102301.53;5006731;28;20790;-70
2021/03/17 04:43:18;;;;;;;5.25;0.43;;;;;;;2.19;46.93;102304.03;4990425;28;20029;-70
2021/03/17 04:45:46;;;;;;;6.35;0.30;;;;;;;2.09;47.08;102310.75;4992376;28;20041;-72
2021/03/17 04:48:11;;;;;;;4.82;0.57;;;;;;;1.96;47.59;102324.25;5008308;28;20025;-72
2021/03/17 04:50:38;;;;;;;11.35;1.08;;;;;;;1.85;47.74;102315.44;4992363;28;20205;-74
2021/03/17 04:53:04;;;;;;;2.28;0.10;;;;;;;2.09;47.86;102321.06;5009665;28;20195;-73
2021/03/17 04:55:30;;;;;;;1.10;0.20;;;;;;;2.20;47.29;102315.19;5008568;28;20084;-73
2021/03/17 04:57:57;;;;;;;1.92;0.20;;;;;;;2.14;47.50;102323.72;5009822;28;20037;-75
2021/03/17 05:00:24;;;;;;;4.57;0.40;;;;;;;2.16;47.68;102322.03;4992324;28;20034;-71
2021/03/17 05:02:56;;;;;;;6.43;0.13;;;;;;;1.78;49.13;102313.59;5011366;28;20033;-73
2021/03/17 05:05:23;;;;;;;3.40;0.38;;;;;;;2.35;47.83;102316.38;5008490;28;20040;-73
2021/03/17 05:07:49;;;;;;;6.30;0.30;;;;;;;2.04;49.16;102319.22;5010676;28;20033;-75
2021/03/17 05:10:15;;;;;;;9.63;1.15;;;;;;;2.30;49.07;102323.13;5018976;28;20041;-72
2021/03/17 05:12:42;;;;;;;15.63;0.75;;;;;;;2.36;49.37;102314.66;5008381;28;20439;-71
2021/03/17 05:15:08;;;;;;;4.60;0.45;;;;;;;2.44;49.19;102322.50;4992329;28;20052;-71
2021/03/17 05:17:35;;;;;;;8.13;0.55;;;;;;;2.59;49.14;102320.19;5005797;28;20053;-73
2021/03/17 05:20:17;;;;;;;12.35;0.63;;;;;;;2.61;49.25;102315.94;4991986;28;20037;-73
2021/03/17 05:22:44;;;;;;;9.25;0.55;;;;;;;2.48;49.52;102313.97;5008725;28;20030;-72
2021/03/17 05:25:11;;;;;;;9.30;0.82;;;;;;;2.71;48.90;102316.94;4994281;28;20029;-72
2021/03/17 05:27:38;;;;;;;8.00;1.17;;;;;;;2.46;49.65;102315.66;5008058;28;20061;-72
2021/03/17 05:30:06;;;;;;;4.82;1.10;;;;;;;2.56;49.69;102315.00;5009571;28;20099;-71
2021/03/17 05:32:33;;;;;;;4.95;0.77;;;;;;;2.71;49.70;102317.81;5009328;28;20500;-71
2021/03/17 05:35:01;;;;;;;12.63;1.15;;;;;;;2.64;50.19;102328.88;5005964;28;20081;-70
2021/03/17 05:37:27;;;;;;;13.75;0.85;;;;;;;2.71;50.27;102323.00;5009413;28;20052;-71
2021/03/17 05:39:54;;;;;;;12.02;0.98;;;;;;;2.46;51.25;102326.00;4993584;28;20038;-73
2021/03/17 05:42:22;;;;;;;8.38;0.95;;;;;;;2.31;51.90;102324.91;5012359;28;20041;-72
2021/03/17 05:44:49;;;;;;;8.18;1.10;;;;;;;2.57;51.19;102319.28;5004196;28;20427;-72
2021/03/17 05:47:15;;;;;;;10.98;0.60;;;;;;;2.52;51.09;102315.78;5010435;28;20029;-73
2021/03/17 05:49:41;;;;;;;3.33;0.75;;;;;;;2.27;51.93;102317.94;4993217;28;20041;-74
2021/03/17 05:52:08;;;;;;;11.35;1.60;;;;;;;2.77;50.58;102317.91;5013176;28;20042;-74
2021/03/17 05:54:35;;;;;;;12.35;1.00;;;;;;;2.70;50.77;102320.38;5012258;28;20034;-72
2021/03/17 05:57:02;;;;;;;6.65;0.63;;;;;;;2.84;50.92;102320.59;5012437;28;20065;-72
2021/03/17 05:59:29;;;;;;;11.52;0.80;;;;;;;2.63;51.68;102326.28;5014180;28;20053;-71
2021/03/17 06:01:56;;;;;;;10.32;1.88;;;;;;;2.66;51.42;102321.16;5017410;28;20025;-74
2021/03/17 06:04:25;;;;;;;10.88;0.93;;;;;;;2.79;51.28;102317.06;5005437;28;20025;-73
2021/03/17 06:06:55;;;;;;;12.05;0.40;;;;;;;2.40;52.34;102321.63;5014651;28;20059;-74
2021/03/17 06:09:23;;;;;;;7.55;0.77;;;;;;;2.57;51.90;102327.91;4994304;28;20030;-74
2021/03/17 06:11:50;;;;;;;13.18;0.98;;;;;;;2.84;51.50;102315.41;5016105;28;20025;-73
2021/03/17 06:14:20;;;;;;;14.55;0.95;;;;;;;2.75;51.71;102326.47;5012409;28;20048;-72
2021/03/17 06:16:48;;;;;;;15.10;1.58;;;;;;;2.86;51.07;102321.47;5017435;28;20052;-72
2021/03/17 06:19:16;;;;;;;7.15;0.70;;;;;;;2.65;51.65;102320.31;5013014;28;20029;-71
2021/03/17 06:21:41;;;;;;;13.13;1.25;;;;;;;2.88;51.11;102324.97;5013146;28;20076;-70
2021/03/17 06:24:09;;;;;;;11.68;0.90;;;;;;;3.14;50.84;102317.59;5015104;28;20038;-72
2021/03/17 06:26:36;;;;;;;14.40;1.75;;;;;;;2.99;50.94;102323.41;5013244;28;20041;-71
2021/03/17 06:29:01;;;;;;;8.25;0.55;;;;;;;3.09;51.04;102314.94;5012582;28;20661;-73
2021/03/17 06:31:28;;;;;;;5.18;0.45;;;;;;;3.08;50.88;102325.25;5015327;28;20025;-70
2021/03/17 06:33:54;;;;;;;12.15;1.58;;;;;;;3.00;50.79;102324.25;5013883;28;20519;-70
2021/03/17 06:36:22;;;;;;;10.02;0.77;;;;;;;3.30;50.13;102334.22;5012799;28;20026;-71
2021/03/17 06:38:48;;;;;;;9.65;0.68;;;;;;;3.55;49.20;102332.81;5012043;28;20022;-71
2021/03/17 06:41:16;;;;;;;9.07;1.17;;;;;;;3.37;49.27;102326.56;5015083;28;20045;-71
2021/03/17 06:43:51;;;;;;;18.25;1.73;;;;;;;3.81;48.05;102330.56;5011767;28;20026;-70
2021/03/17 06:46:18;;;;;;;4.93;0.50;;;;;;;4.46;47.15;102323.44;4991382;28;20074;-70
2021/03/17 06:48:44;;;;;;;7.57;0.80;;;;;;;4.96;44.94;102320.41;5012007;28;20034;-70
2021/03/17 06:51:09;;;;;;;7.47;0.88;;;;;;;5.86;42.49;102333.81;5013101;28;20038;-70
2021/03/17 06:53:48;;;;;;;13.80;0.70;;;;;;;5.29;43.20;102330.09;5013351;28;20033;-69
2021/03/17 06:56:16;;;;;;;10.43;0.75;;;;;;;4.38;45.24;102326.81;4994714;28;20504;-72
2021/03/17 06:58:44;;;;;;;12.48;0.82;;;;;;;4.76;45.12;102331.44;5016257;28;20083;-71
2021/03/17 07:01:36;;;;;;;9.88;0.43;;;;;;;4.51;45.38;102339.88;4997925;28;20029;-73
2021/03/17 07:04:11;;;;;;;19.52;1.67;;;;;;;5.15;44.35;102340.41;5011902;28;20037;-74
2021/03/17 07:06:39;;;;;;;9.60;0.43;;;;;;;5.37;43.61;102338.81;5012931;28;20558;-74
2021/03/17 07:09:22;;;;;;;13.18;0.60;;;;;;;6.27;41.53;102346.00;4993182;28;20041;-71
2021/03/17 07:12:04;;;;;;;3.75;0.55;;;;;;;5.53;43.00;102354.44;5013549;28;20018;-71
2021/03/17 07:14:36;;;;;;;;;;;;;;;5.14;44.01;102353.34;5010799;28;20036;-71
2021/03/17 07:17:01;;;;;;;4.65;0.50;;;;;;;4.65;45.73;102358.97;5014138;28;19952;-71
2021/03/17 07:19:40;;;;;;;16.83;1.30;;;;;;;4.18;46.52;102362.84;5012935;28;20500;-71
2021/03/17 07:22:14;;;;;;;12.27;1.33;;;;;;;4.06;47.27;102367.06;4995804;28;20528;-71
2021/03/17 07:24:41;;;;;;;11.10;0.60;;;;;;;4.40;46.72;102374.28;5015013;28;20086;-70
2021/03/17 07:27:24;;;;;;;14.63;1.75;;;;;;;3.81;48.25;102371.94;4996026;28;20041;-70
2021/03/17 07:29:58;;;;;;;;;;;;;;;4.08;47.56;102367.94;5009737;28;20671;-71
2021/03/17 07:32:46;;;;;;;10.02;1.95;;;;;;;3.92;47.59;102378.09;5011140;28;19924;-70
2021/03/17 07:35:26;;;;;;;6.57;0.30;;;;;;;4.17;47.30;102380.97;4993320;28;20040;-71
2021/03/17 07:38:09;;;;;;;9.88;0.60;;;;;;;4.66;45.82;102380.59;5012059;28;20121;-70
2021/03/17 07:40:43;;;;;;;9.90;0.77;;;;;;;4.57;46.25;102383.97;5010287;28;20208;-70
2021/03/17 07:43:10;;;;;;;10.88;0.60;;;;;;;4.01;47.19;102390.28;5011048;28;20499;-69
2021/03/17 07:45:37;;;;;;;16.48;1.67;;;;;;;4.56;46.43;102402.94;5010011;28;20069;-70
2021/03/17 07:48:05;;;;;;;7.47;0.75;;;;;;;4.23;46.72;102399.16;5011891;28;20091;-73
2021/03/17 07:50:31;;;;;;;9.50;1.48;;;;;;;4.26;46.69;102399.19;4993673;28;20054;-72
2021/03/17 07:53:05;;;;;;;11.18;0.65;;;;;;;4.10;47.43;102402.47;5012447;28;20511;-71
2021/03/17 07:55:34;;;;;;;14.23;2.17;;;;;;;4.32;46.84;102396.66;5013579;28;20042;-71
2021/03/17 07:58:00;;;;;;;4.13;0.28;;;;;;;4.41;46.64;102404.53;5018734;28;20026;-70
2021/03/17 08:00:26;;;;;;;10.45;0.80;;;;;;;4.17;47.44;102414.63;5012581;28;20038;-74
2021/03/17 08:02:56;;;;;;;17.55;1.65;;;;;;;4.02;47.84;102400.63;5017469;28;20487;-72
2021/03/17 08:05:22;;;;;;;14.57;0.70;;;;;;;4.52;47.39;102402.06;5012511;28;20089;-71
2021/03/17 08:07:49;;;;;;;6.32;0.22;;;;;;;4.76;46.47;102398.78;5011752;28;20054;-71
2021/03/17 08:10:14;;;;;;;8.48;0.63;;;;;;;4.14;47.27;102396.44;5002961;28;20050;-70
2021/03/17 08:12:43;;;;;;;10.02;0.85;;;;;;;4.02;47.40;102408.41;5001330;28;20029;-72
2021/03/17 08:15:12;;;;;;;10.35;0.70;;;;;;;4.13;47.45;102412.84;4996902;28;20038;-70
2021/03/17 08:17:38;;;;;;;9.07;0.57;;;;;;;4.36;46.45;102405.31;5028338;28;20192;-71
2021/03/17 08:20:17;;;;;;;7.45;2.05;;;;;;;3.92;47.38;102398.81;5015118;28;20124;-72
2021/03/17 08:22:44;;;;;;;11.45;1.13;;;;;;;3.75;48.05;102400.31;5012439;28;20046;-71
2021/03/17 08:25:12;;;;;;;4.97;1.20;;;;;;;3.82;47.08;102399.53;4992466;28;20030;-71
2021/03/17 08:27:38;;;;;;;11.38;0.45;;;;;;;3.77;47.41;102411.53;5014141;28;20113;-72
2021/03/17 08:30:11;;;;;;;6.82;0.98;;;;;;;3.98;47.10;102413.50;5016082;28;20046;-71
2021/03/17 08:32:55;;;;;;;11.35;0.50;;;;;;;4.23;47.00;102409.53;4994951;28;20064;-71
2021/03/17 08:35:22;;;;;;;7.13;0.60;;;;;;;4.36;46.24;102411.38;5013653;28;20064;-71
2021/03/17 08:37:53;;;;;;;13.77;0.93;;;;;;;4.07;47.00;102408.44;4994457;28;20073;-72
2021/03/17 08:40:28;;;;;;;14.80;0.50;;;;;;;4.32;47.25;102414.78;4996993;28;20029;-70
2021/03/17 08:42:55;;;;;;;7.82;0.68;;;;;;;4.22;47.52;102410.34;5012945;28;20107;-73
2021/03/17 08:45:22;;;;;;;5.90;0.88;;;;;;;4.23;46.64;102414.69;5016535;28;20029;-71
2021/03/17 08:47:49;;;;;;;5.68;0.35;;;;;;;4.54;46.16;102420.16;5014928;28;20099;-71
2021/03/17 08:50:14;;;;;;;1.52;0.22;;;;;;;5.77;43.21;102410.72;5014587;28;20083;-73
2021/03/17 08:52:42;;;;;;;7.90;0.30;;;;;;;5.63;43.07;102408.94;4996016;28;20033;-71
2021/03/17 08:55:13;;;;;;;3.13;0.50;;;;;;;5.72;41.92;102415.03;5014460;28;20038;-72
2021/03/17 08:58:07;;;;;;;4.28;0.75;;;;;;;5.25;42.07;102417.34;5015477;28;20048;-73
2021/03/17 09:00:44;;;;;;;2.33;0.10;;;;;;;5.56;41.65;102419.28;4996383;28;20034;-72
2021/03/17 09:03:44;;;;;;;3.50;0.30;;;;;;;5.75;41.40;102422.84;5015913;28;20022;-71
2021/03/17 09:06:14;;;;;;;4.47;0.20;;;;;;;5.78;42.36;102425.47;5013978;28;20053;-72
2021/03/17 09:08:48;;;;;;;4.43;0.20;;;;;;;5.44;42.02;102427.88;5012506;28;20657;-72
2021/03/17 09:11:29;;;;;;;5.75;0.40;;;;;;;5.24;42.84;102427.72;5014030;28;20029;-70
2021/03/17 09:13:58;;;;;;;1.48;0.20;;;;;;;4.72;43.74;102428.16;5011821;28;20110;-72
2021/03/17 09:16:25;;;;;;;2.28;0.20;;;;;;;5.06;43.84;102431.06;4994384;28;20101;-71
2021/03/17 09:19:03;;;;;;;5.30;0.10;;;;;;;5.32;43.27;102443.31;5013860;28;20033;-72
2021/03/17 09:21:33;;;;;;;6.10;0.50;;;;;;;4.73;44.31;102437.63;5014433;28;20038;-73
2021/03/17 09:23:59;;;;;;;2.75;0.20;;;;;;;4.48;44.34;102446.03;4998944;28;20026;-70
2021/03/17 09:26:28;;;;;;;1.00;0.17;;;;;;;4.51;44.25;102440.88;5014159;28;20508;-72
2021/03/17 09:28:54;;;;;;;2.78;0.20;;;;;;;4.70;43.72;102450.56;5013103;28;20722;-69
2021/03/17 09:31:22;;;;;;;1.80;0.20;;;;;;;4.56;43.60;102446.94;5015814;28;20038;-71
2021/03/17 09:33:49;;;;;;;1.83;0.63;;;;;;;4.53;43.36;102433.97;5016666;28;20049;-71
2021/03/17 09:36:20;;;;;;;6.88;0.30;;;;;;;4.67;42.86;102442.75;4997847;28;20888;-69
2021/03/17 09:38:49;;;;;;;3.67;0.73;;;;;;;5.14;41.82;102444.91;5014384;28;20104;-72
2021/03/17 09:41:20;;;;;;;3.08;0.30;;;;;;;4.97;41.96;102436.16;4998593;28;20355;-72
2021/03/17 09:43:51;;;;;;;8.70;0.20;;;;;;;4.73;42.64;102448.00;5015902;28;20071;-71
2021/03/17 09:46:29;;;;;;;1.85;0.20;;;;;;;4.77;42.82;102449.78;5015248;28;20485;-72
2021/03/17 09:48:58;;;;;;;0.47;0.13;;;;;;;4.32;42.72;102456.22;5009237;28;20075;-72
2021/03/17 09:51:28;;;;;;;1.23;0.10;;;;;;;4.22;43.30;102441.41;5010301;28;20030;-71
2021/03/17 09:53:55;;;;;;;0.50;0.20;;;;;;;4.29;43.22;102450.13;5009801;28;20068;-70
2021/03/17 09:56:33;;;;;;;1.02;0.10;;;;;;;4.80;41.57;102447.19;5012009;28;20037;-71
2021/03/17 09:59:20;;;;;;;2.75;0.20;;;;;;;4.50;42.75;102446.88;4994426;28;20388;-72
2021/03/17 10:01:58;;;;;;;10.27;0.63;;;;;;;4.91;42.36;102462.00;5010615;28;20046;-71
2021/03/17 10:04:54;;;;;;;6.43;0.20;;;;;;;4.95;42.20;102464.66;5004816;28;20037;-71
2021/03/17 10:07:21;;;;;;;1.98;0.32;;;;;;;5.13;41.16;102463.94;5008381;28;20048;-71
2021/03/17 10:09:49;;;;;;;4.38;0.20;;;;;;;5.32;40.96;102464.06;5015437;28;20086;-71
2021/03/17 10:12:19;;;;;;;4.95;0.10;;;;;;;5.51;40.29;102455.56;5018562;28;20042;-72
2021/03/17 10:14:48;;;;;;;2.60;0.10;;;;;;;5.58;39.84;102454.75;5020162;28;20026;-71
2021/03/17 10:17:15;;;;;;;4.70;0.20;;;;;;;5.74;39.15;102460.03;5020964;28;20042;-71
2021/03/17 10:19:42;;;;;;;5.03;0.20;;;;;;;5.32;39.98;102457.16;5013580;28;20649;-70
2021/03/17 10:22:09;;;;;;;2.28;0.20;;;;;;;5.30;40.93;102460.59;5012751;28;20046;-70
2021/03/17 10:24:46;;;;;;;4.25;0.17;;;;;;;5.46;40.47;102465.06;5010265;28;20029;-70
2021/03/17 10:27:24;;;;;;;14.15;0.73;;;;;;;5.22;40.46;102464.00;4994179;28;20048;-72
2021/03/17 10:29:52;;;;;;;1.90;0.35;;;;;;;5.32;41.08;102467.53;5010807;28;20453;-71
2021/03/17 10:32:21;;;;;;;2.25;0.08;;;;;;;5.98;39.94;102467.94;5014098;28;20120;-72
2021/03/17 10:34:47;;;;;;;2.78;0.30;;;;;;;5.85;39.31;102468.75;4986214;28;20053;-71
2021/03/17 10:37:20;;;;;;;2.28;0.20;;;;;;;5.54;41.04;102467.69;4993387;28;20030;-72
2021/03/17 10:39:50;;;;;;;3.00;0.30;;;;;;;5.38;41.11;102477.09;5008733;28;20562;-71
2021/03/17 10:42:25;;;;;;;2.65;0.22;;;;;;;4.84;41.67;102474.88;4992856;28;20030;-72
2021/03/17 10:45:08;;;;;;;2.95;0.10;;;;;;;5.45;41.69;102482.31;4995283;28;20044;-71
2021/03/17 10:47:35;;;;;;;3.08;0.20;;;;;;;5.46;41.65;102478.88;5014515;28;20514;-71
2021/03/17 10:50:01;;;;;;;1.35;0.20;;;;;;;4.88;43.03;102487.88;5015557;28;20503;-72
2021/03/17 10:52:34;;;;;;;0.98;0.30;;;;;;;5.57;41.63;102480.66;5009947;28;20050;-71
2021/03/17 10:55:12;;;;;;;2.40;0.10;;;;;;;4.95;43.13;102484.50;5014674;28;20042;-72
2021/03/17 10:57:38;;;;;;;2.80;0.25;;;;;;;4.96;42.80;102488.81;5012591;28;20037;-71
2021/03/17 11:00:15;;;;;;;5.35;0.25;;;;;;;4.97;43.09;102490.59;5012445;28;20050;-71
2021/03/17 11:02:41;;;;;;;3.90;0.10;;;;;;;5.09;43.07;102487.22;5015288;28;20034;-70
2021/03/17 11:05:07;;;;;;;5.78;0.52;;;;;;;5.49;42.57;102483.22;5009255;28;20042;-71
2021/03/17 11:07:52;;;;;;;3.42;0.25;;;;;;;5.56;42.23;102490.19;5012540;28;20120;-71
2021/03/17 11:10:33;;;;;;;3.38;0.25;;;;;;;5.67;42.34;102493.72;5014834;28;20039;-72
2021/03/17 11:13:08;;;;;;;4.57;0.10;;;;;;;5.87;41.56;102491.25;5010865;28;20052;-72
2021/03/17 11:15:35;;;;;;;4.40;0.63;;;;;;;5.89;41.12;102486.06;5011676;28;20393;-71
2021/03/17 11:18:01;;;;;;;1.75;0.10;;;;;;;6.01;41.28;102488.72;5012255;28;20041;-72
2021/03/17 11:20:27;;;;;;;4.38;0.10;;;;;;;6.05;41.24;102489.59;5015453;28;20133;-71
2021/03/17 11:22:53;;;;;;;4.78;0.20;;;;;;;5.93;40.64;102494.75;5013880;28;20025;-72
2021/03/17 11:25:23;;;;;;;3.10;0.30;;;;;;;6.18;40.47;102495.72;4994750;28;20221;-71
2021/03/17 11:27:49;;;;;;;2.83;0.45;;;;;;;5.87;41.27;102490.38;5012639;28;20500;-72
2021/03/17 11:30:15;;;;;;;1.90;0.25;;;;;;;6.14;39.37;102488.78;5012144;28;20061;-71
2021/03/17 11:32:41;;;;;;;0.98;0.43;;;;;;;6.01;40.08;102493.03;4996714;28;20530;-71
2021/03/17 11:35:07;;;;;;;2.50;0.22;;;;;;;6.13;39.77;102492.22;5013573;28;20042;-72
2021/03/17 11:37:32;;;;;;;3.15;0.10;;;;;;;5.89;40.41;102493.84;4992003;28;20042;-71
2021/03/17 11:39:58;;;;;;;1.23;0.22;;;;;;;6.34;40.52;102492.34;4998715;28;20044;-72
2021/03/17 11:42:23;;;;;;;1.13;0.20;;;;;;;7.63;38.40;102489.91;4997756;28;20030;-71
2021/03/17 11:44:49;;;;;;;5.93;0.28;;;;;;;7.68;38.12;102489.91;5011931;28;20021;-71
2021/03/17 11:47:15;;;;;;;3.53;0.40;;;;;;;7.95;37.46;102486.34;5015054;28;20037;-71
2021/03/17 11:49:41;;;;;;;1.73;0.68;;;;;;;7.48;37.89;102495.09;4994957;28;20506;-70